Time;durP1;ratioP1;P1;durP2;ratioP2;P2;SDS_P1;SDS_P2;PMS_P1;PMS_P2;Temp;Humidity;BMP_temperature;BMP_pressure;BME280_temperature;BME280_humidity;BME280_pressure;Samples;Min_cycle;Max_cycle;Signal;HPM_P1;HPM_P2
2021/01/17 00:00:20;;;;;;;88.90;37.10;;;90.20;2176.00;;;;;;5073713;28;20027;-71
2021/01/17 00:02:50;;;;;;;91.70;38.60;;;90.10;2176.00;;;;;;5091780;28;20046;-72
2021/01/17 00:05:25;;;;;;;109.80;46.13;;;90.10;2176.00;;;;;;5091126;28;20028;-71
2021/01/17 00:07:51;;;;;;;110.85;47.72;;;90.00;2176.00;;;;;;5091634;28;20009;-70
2021/01/17 00:10:19;;;;;;;85.28;36.17;;;90.00;2176.00;;;;;;5073534;28;20548;-71
2021/01/17 00:12:49;;;;;;;81.28;35.20;;;90.10;2176.00;;;;;;5091685;28;20531;-71
2021/01/17 00:15:15;;;;;;;89.35;38.80;;;90.30;2176.00;;;;;;5067632;28;20084;-71
2021/01/17 00:17:41;;;;;;;83.28;35.55;;;90.30;2176.00;;;;;;5076147;28;20033;-70
2021/01/17 00:20:14;;;;;;;88.43;37.47;;;90.40;2176.00;;;;;;5073856;28;20052;-72
2021/01/17 00:22:41;;;;;;;132.07;51.85;;;115.20;2176.00;;;;;;5091483;28;20406;-71
2021/01/17 00:25:09;;;;;;;198.15;72.53;;;115.30;2176.00;;;;;;5091656;28;20127;-72
2021/01/17 00:27:35;;;;;;;102.95;41.63;;;115.20;2176.00;;;;;;5073354;28;20016;-72
2021/01/17 00:30:02;;;;;;;85.03;35.20;;;115.30;2176.00;;;;;;5073400;28;20016;-71
2021/01/17 00:32:28;;;;;;;104.70;39.55;;;115.40;2176.00;;;;;;5073318;28;20051;-72
2021/01/17 00:34:54;;;;;;;125.82;44.80;;;115.30;2176.00;;;;;;5091366;28;20043;-73
2021/01/17 00:37:19;;;;;;;128.05;47.85;;;115.20;2176.00;;;;;;5091131;28;20040;-72
2021/01/17 00:39:45;;;;;;;123.00;46.85;;;90.50;2176.00;;;;;;5093225;28;20031;-71
2021/01/17 00:42:15;;;;;;;140.43;48.38;;;90.50;2176.00;;;;;;5091604;28;20032;-69
2021/01/17 00:44:41;;;;;;;81.13;34.97;;;90.50;2176.00;;;;;;5073451;28;20050;-69
2021/01/17 00:47:07;;;;;;;80.40;35.05;;;115.40;2176.00;;;;;;5091737;28;20107;-70
2021/01/17 00:49:32;;;;;;;87.80;36.13;;;115.50;2176.00;;;;;;5091364;28;20050;-70
2021/01/17 00:51:58;;;;;;;82.20;36.08;;;115.50;2176.00;;;;;;5091117;28;20483;-70
2021/01/17 00:54:23;;;;;;;79.32;34.90;;;115.40;2176.00;;;;;;5091226;28;20384;-71
2021/01/17 00:56:49;;;;;;;79.75;34.67;;;115.30;2176.00;;;;;;5091261;28;20026;-70
2021/01/17 00:59:15;;;;;;;81.60;34.00;;;115.30;2176.00;;;;;;5091026;28;20366;-69
2021/01/17 01:01:41;;;;;;;77.55;34.33;;;115.20;2176.00;;;;;;5091098;28;20031;-71
2021/01/17 01:04:08;;;;;;;77.55;33.28;;;115.20;2176.00;;;;;;5091002;28;20020;-71
2021/01/17 01:06:34;;;;;;;78.70;33.55;;;115.20;2176.00;;;;;;5073239;28;20024;-69
2021/01/17 01:09:02;;;;;;;77.50;32.92;;;115.30;2176.00;;;;;;5073118;28;20440;-71
2021/01/17 01:11:28;;;;;;;84.60;35.20;;;115.30;2176.00;;;;;;5090896;28;20025;-72
2021/01/17 01:13:54;;;;;;;86.30;34.38;;;115.40;2176.00;;;;;;5091264;28;20028;-70
2021/01/17 01:16:19;;;;;;;81.55;33.53;;;115.20;2176.00;;;;;;5090749;28;20083;-71
2021/01/17 01:18:45;;;;;;;103.47;43.25;;;90.50;2176.00;;;;;;5089846;28;20024;-71
2021/01/17 01:21:13;;;;;;;93.47;38.80;;;90.40;2176.00;;;;;;5090234;28;20827;-71
2021/01/17 01:23:40;;;;;;;84.60;35.20;;;115.30;2176.00;;;;;;5090128;28;20018;-70
2021/01/17 01:26:06;;;;;;;77.18;33.25;;;115.30;2176.00;;;;;;5090365;28;20097;-71
2021/01/17 01:28:32;;;;;;;80.63;35.83;;;115.40;2176.00;;;;;;5090363;28;20109;-69
2021/01/17 01:30:57;;;;;;;86.63;37.92;;;115.50;2176.00;;;;;;5092960;28;20099;-70
2021/01/17 01:33:23;;;;;;;85.05;36.10;;;115.60;2176.00;;;;;;5075669;28;20020;-70
2021/01/17 01:35:49;;;;;;;78.20;35.95;;;115.50;2176.00;;;;;;5093874;28;20073;-70
2021/01/17 01:38:15;;;;;;;79.65;35.05;;;115.50;2176.00;;;;;;5093690;28;20024;-70
2021/01/17 01:40:41;;;;;;;85.78;37.80;;;115.40;2176.00;;;;;;5093689;28;20535;-69
2021/01/17 01:43:06;;;;;;;88.93;36.97;;;115.50;2176.00;;;;;;5093376;28;20107;-69
2021/01/17 01:45:32;;;;;;;93.97;37.60;;;115.50;2176.00;;;;;;5093757;28;20090;-71
2021/01/17 01:47:58;;;;;;;84.38;36.35;;;115.50;2176.00;;;;;;5093656;28;20024;-70
2021/01/17 01:50:23;;;;;;;93.82;39.13;;;115.60;2176.00;;;;;;5075432;28;20081;-70
2021/01/17 01:52:49;;;;;;;89.13;34.75;;;115.60;2176.00;;;;;;5074944;28;20078;-69
2021/01/17 01:55:15;;;;;;;95.47;37.40;;;115.90;2176.00;;;;;;5075399;28;20028;-70
2021/01/17 01:57:40;;;;;;;90.65;37.10;;;115.90;2176.00;;;;;;5093152;28;20439;-69
2021/01/17 02:00:06;;;;;;;80.90;34.40;;;115.70;2176.00;;;;;;5059206;28;20089;-70
2021/01/17 02:02:45;;;;;;;97.20;39.53;;;115.90;2176.00;;;;;;5094131;28;20055;-70
2021/01/17 02:05:11;;;;;;;97.25;37.35;;;115.80;2176.00;;;;;;5093763;28;20392;-69
2021/01/17 02:08:06;;;;;;;100.05;39.33;;;115.80;2176.00;;;;;;5093837;28;20468;-71
2021/01/17 02:10:31;;;;;;;98.57;39.60;;;115.80;2176.00;;;;;;5080972;28;20077;-71
2021/01/17 02:13:04;;;;;;;91.75;35.58;;;115.90;2176.00;;;;;;5075803;28;20415;-72
2021/01/17 02:15:34;;;;;;;81.05;34.17;;;115.90;2176.00;;;;;;5093496;28;20103;-69
2021/01/17 02:18:00;;;;;;;;;;;115.90;2176.00;;;;;;5075873;28;20047;-70
2021/01/17 02:20:26;;;;;;;81.05;33.25;;;115.90;2176.00;;;;;;5075458;28;19958;-70
2021/01/17 02:23:01;;;;;;;89.70;36.97;;;115.80;2176.00;;;;;;5076921;28;20050;-69
2021/01/17 02:25:34;;;;;;;94.90;37.75;;;115.80;2176.00;;;;;;5093652;28;20445;-71
2021/01/17 02:28:24;;;;;;;94.72;38.15;;;115.70;2176.00;;;;;;5075048;28;20017;-70
2021/01/17 02:30:50;;;;;;;;;;;115.70;2176.00;;;;;;5092724;28;20062;-71
2021/01/17 02:33:36;;;;;;;65.20;29.60;;;115.60;2176.00;;;;;;5074545;28;19908;-71
2021/01/17 02:36:22;;;;;;;86.75;33.42;;;115.70;2176.00;;;;;;5058745;28;20024;-70
2021/01/17 02:38:47;;;;;;;91.18;34.97;;;115.70;2176.00;;;;;;5049262;28;20032;-71
2021/01/17 02:41:30;;;;;;;82.95;35.03;;;115.70;2176.00;;;;;;5093019;28;20345;-70
2021/01/17 02:43:56;;;;;;;87.28;32.53;;;115.90;2176.00;;;;;;5060145;28;20062;-71
2021/01/17 02:46:21;;;;;;;81.88;35.80;;;115.90;2176.00;;;;;;5075400;28;20510;-72
2021/01/17 02:48:47;;;;;;;82.53;35.83;;;115.90;2176.00;;;;;;5092718;28;20024;-71
2021/01/17 02:51:13;;;;;;;82.55;33.75;;;115.90;2176.00;;;;;;5092587;28;20024;-70
2021/01/17 02:53:45;;;;;;;74.88;32.00;;;115.80;2176.00;;;;;;5075268;28;20404;-70
2021/01/17 02:56:15;;;;;;;71.57;32.22;;;115.70;2176.00;;;;;;5093106;28;20484;-70
2021/01/17 02:58:42;;;;;;;74.65;32.63;;;115.70;2176.00;;;;;;5075719;28;20024;-70
2021/01/17 03:01:07;;;;;;;84.57;34.92;;;115.70;2176.00;;;;;;5075368;28;20662;-71
2021/01/17 03:03:37;;;;;;;84.00;34.58;;;115.70;2176.00;;;;;;5074996;28;20032;-71
2021/01/17 03:06:05;;;;;;;82.03;34.67;;;115.70;2176.00;;;;;;5093170;28;20016;-71
2021/01/17 03:08:31;;;;;;;83.78;34.85;;;115.60;2176.00;;;;;;5075410;28;20103;-70
2021/01/17 03:10:56;;;;;;;79.07;33.25;;;115.60;2176.00;;;;;;5093280;28;20513;-71
2021/01/17 03:13:22;;;;;;;70.72;31.40;;;115.60;2176.00;;;;;;5092904;28;20032;-71
2021/01/17 03:15:48;;;;;;;63.40;28.50;;;115.50;2176.00;;;;;;5074812;28;20008;-71
2021/01/17 03:18:13;;;;;;;80.88;32.03;;;115.50;2176.00;;;;;;5074757;28;20031;-73
2021/01/17 03:20:39;;;;;;;70.25;30.15;;;115.50;2176.00;;;;;;5092820;28;20077;-71
2021/01/17 03:23:04;;;;;;;65.10;28.85;;;115.50;2176.00;;;;;;5092857;28;20121;-72
2021/01/17 03:25:30;;;;;;;65.03;30.48;;;115.40;2176.00;;;;;;5092846;28;20034;-71
2021/01/17 03:27:56;;;;;;;63.72;28.17;;;115.50;2176.00;;;;;;5092643;28;20034;-70
2021/01/17 03:30:21;;;;;;;61.88;26.58;;;115.40;2176.00;;;;;;5092901;28;20020;-71
2021/01/17 03:32:47;;;;;;;66.72;27.67;;;115.30;2176.00;;;;;;5093035;28;20031;-71
2021/01/17 03:35:13;;;;;;;66.22;29.30;;;115.30;2176.00;;;;;;5092645;28;20078;-70
2021/01/17 03:37:38;;;;;;;55.70;26.33;;;115.30;2176.00;;;;;;5092469;28;20136;-70
2021/01/17 03:40:05;;;;;;;61.97;26.40;;;115.30;2176.00;;;;;;5092596;28;20047;-70
2021/01/17 03:42:30;;;;;;;54.33;25.02;;;115.20;2176.00;;;;;;5092474;28;20024;-70
2021/01/17 03:44:56;;;;;;;56.80;26.02;;;115.20;2176.00;;;;;;5092312;28;20028;-71
2021/01/17 03:47:21;;;;;;;60.00;25.13;;;115.20;2176.00;;;;;;5092343;28;20388;-71
2021/01/17 03:49:47;;;;;;;53.38;24.40;;;90.50;2176.00;;;;;;5092145;28;20063;-70
2021/01/17 03:52:12;;;;;;;51.53;24.05;;;115.20;2176.00;;;;;;5073835;28;20031;-70
2021/01/17 03:54:38;;;;;;;54.28;24.05;;;90.50;2176.00;;;;;;5074061;28;20027;-70
2021/01/17 03:57:04;;;;;;;55.75;24.88;;;90.50;2176.00;;;;;;5092126;28;20020;-69
2021/01/17 03:59:29;;;;;;;58.40;23.83;;;90.50;2176.00;;;;;;5092280;28;20039;-70
2021/01/17 04:01:55;;;;;;;52.00;23.63;;;90.50;2176.00;;;;;;5091895;28;20574;-70
2021/01/17 04:04:21;;;;;;;54.65;25.25;;;90.50;2176.00;;;;;;5092204;28;20396;-70
2021/01/17 04:06:46;;;;;;;55.65;25.48;;;90.50;2176.00;;;;;;5091934;28;20044;-70
2021/01/17 04:09:12;;;;;;;59.28;26.75;;;90.50;2176.00;;;;;;5073938;28;20024;-70
2021/01/17 04:11:38;;;;;;;65.60;27.63;;;90.50;2176.00;;;;;;5092125;28;20020;-71
2021/01/17 04:14:03;;;;;;;61.63;26.55;;;115.20;2176.00;;;;;;5091841;28;20020;-70
2021/01/17 04:16:29;;;;;;;61.60;26.10;;;115.20;2176.00;;;;;;5092101;28;20055;-70
2021/01/17 04:18:55;;;;;;;62.45;27.15;;;90.50;2176.00;;;;;;5091637;28;20024;-69
2021/01/17 04:21:20;;;;;;;65.50;28.15;;;115.20;2176.00;;;;;;5086951;28;20025;-71
2021/01/17 04:23:46;;;;;;;77.20;31.77;;;115.20;2176.00;;;;;;5087856;28;20031;-70
2021/01/17 04:26:11;;;;;;;62.85;26.15;;;115.20;2176.00;;;;;;5091953;28;20054;-70
2021/01/17 04:28:37;;;;;;;62.60;27.33;;;115.20;2176.00;;;;;;5090626;28;20546;-70
2021/01/17 04:31:03;;;;;;;64.00;26.58;;;115.20;2176.00;;;;;;5091705;28;20019;-70
2021/01/17 04:33:29;;;;;;;63.10;27.15;;;115.20;2176.00;;;;;;5091850;28;20765;-71
2021/01/17 04:35:54;;;;;;;66.80;27.88;;;115.20;2176.00;;;;;;5091285;28;20097;-69
2021/01/17 04:38:20;;;;;;;63.70;27.52;;;115.20;2176.00;;;;;;5091841;28;20028;-70
2021/01/17 04:40:46;;;;;;;61.65;25.27;;;115.20;2176.00;;;;;;5091655;28;20020;-70
2021/01/17 04:43:29;;;;;;;60.15;25.33;;;115.20;2176.00;;;;;;5091620;28;20099;-70
2021/01/17 04:46:00;;;;;;;56.97;26.00;;;115.20;2176.00;;;;;;5091483;28;20028;-69
2021/01/17 04:48:26;;;;;;;61.75;26.42;;;115.20;2176.00;;;;;;5091708;28;20059;-70
2021/01/17 04:51:03;;;;;;;70.07;27.38;;;90.50;2176.00;;;;;;5091647;28;20048;-71
2021/01/17 04:53:30;;;;;;;64.75;26.85;;;115.20;2176.00;;;;;;5075053;28;20100;-70
2021/01/17 04:56:14;;;;;;;63.10;28.13;;;115.20;2176.00;;;;;;5092011;28;20059;-70
2021/01/17 04:58:43;;;;;;;65.15;28.05;;;115.30;2176.00;;;;;;5091738;28;20095;-71
2021/01/17 05:01:13;;;;;;;64.03;28.00;;;115.40;2176.00;;;;;;5073977;28;20427;-71
2021/01/17 05:04:35;;;;;;;63.92;28.23;;;115.40;2176.00;;;;;;5074794;28;20032;-70
2021/01/17 05:07:15;;;;;;;72.15;28.05;;;115.30;2176.00;;;;;;5013146;28;20026;-70
2021/01/17 05:09:44;;;;;;;54.92;24.27;;;115.30;2176.00;;;;;;5004198;28;20026;-70
2021/01/17 05:12:14;;;;;;;55.97;24.63;;;115.30;2176.00;;;;;;5071500;28;20494;-69
2021/01/17 05:14:45;;;;;;;57.53;25.43;;;115.30;2176.00;;;;;;5094673;28;20269;-69
2021/01/17 05:17:11;;;;;;;62.70;26.95;;;115.30;2176.00;;;;;;5090553;28;20264;-70
2021/01/17 05:19:37;;;;;;;58.60;25.38;;;115.40;2176.00;;;;;;5077090;28;20028;-71
2021/01/17 05:22:04;;;;;;;57.63;24.88;;;115.30;2176.00;;;;;;5084134;28;20020;-70
2021/01/17 05:24:30;;;;;;;58.63;24.95;;;115.30;2176.00;;;;;;5094225;28;20028;-69
2021/01/17 05:26:56;;;;;;;62.15;25.42;;;115.30;2176.00;;;;;;5076784;28;20024;-70
2021/01/17 05:29:23;;;;;;;55.58;25.58;;;115.30;2176.00;;;;;;5094919;28;20016;-70
2021/01/17 05:31:50;;;;;;;52.72;24.40;;;115.30;2176.00;;;;;;5094822;28;20024;-70
2021/01/17 05:34:19;;;;;;;53.75;23.77;;;115.20;2176.00;;;;;;5094842;28;20063;-70
2021/01/17 05:36:48;;;;;;;55.63;23.85;;;90.50;2176.00;;;;;;5076552;28;20497;-71
2021/01/17 05:39:13;;;;;;;57.40;24.30;;;90.40;2176.00;;;;;;5076331;28;20036;-70
2021/01/17 05:41:39;;;;;;;57.22;26.02;;;90.40;2176.00;;;;;;5076826;28;20027;-70
2021/01/17 05:44:05;;;;;;;56.40;23.38;;;90.50;2176.00;;;;;;5076422;28;20024;-71
2021/01/17 05:46:30;;;;;;;58.45;23.95;;;90.50;2176.00;;;;;;5076577;28;20465;-70
2021/01/17 05:49:12;;;;;;;59.33;25.88;;;115.20;2176.00;;;;;;5094497;28;20024;-69
2021/01/17 05:51:38;;;;;;;50.97;22.48;;;115.20;2176.00;;;;;;5076411;28;20012;-71
2021/01/17 05:54:10;;;;;;;49.85;21.70;;;90.50;2176.00;;;;;;5094733;28;20050;-70
2021/01/17 05:56:36;;;;;;;45.17;21.23;;;90.50;2176.00;;;;;;5094677;28;20103;-70
2021/01/17 05:59:03;;;;;;;48.63;22.30;;;90.50;2176.00;;;;;;5076439;28;20540;-70
2021/01/17 06:01:34;;;;;;;50.15;22.38;;;90.40;2176.00;;;;;;5094153;28;20488;-70
2021/01/17 06:04:08;;;;;;;59.53;25.08;;;90.40;2176.00;;;;;;5076922;28;20026;-71
2021/01/17 06:06:34;;;;;;;57.08;25.05;;;90.50;2176.00;;;;;;5094170;28;20020;-70
2021/01/17 06:09:00;;;;;;;62.10;25.52;;;90.40;2176.00;;;;;;5076499;28;20016;-70
2021/01/17 06:11:26;;;;;;;60.97;25.25;;;90.40;2176.00;;;;;;5094344;28;20028;-70
2021/01/17 06:13:57;;;;;;;48.88;22.40;;;90.40;2176.00;;;;;;5094079;28;20080;-70
2021/01/17 06:16:38;;;;;;;60.00;24.05;;;90.30;2176.00;;;;;;5093556;28;20111;-70
2021/01/17 06:19:08;;;;;;;51.75;22.45;;;90.40;2176.00;;;;;;5093899;28;20020;-69
2021/01/17 06:21:34;;;;;;;96.32;38.50;;;90.40;2176.00;;;;;;5094120;28;20028;-70
2021/01/17 06:24:07;;;;;;;202.82;76.70;;;90.40;2176.00;;;;;;5077654;28;20134;-70
2021/01/17 06:26:36;;;;;;;247.55;92.45;;;90.40;2176.00;;;;;;5094040;28;20059;-71
2021/01/17 06:29:07;;;;;;;167.60;66.72;;;90.40;2176.00;;;;;;5093763;28;20017;-70
2021/01/17 06:31:32;;;;;;;121.30;58.95;;;90.30;2176.00;;;;;;5076515;28;20049;-70
2021/01/17 06:34:08;;;;;;;117.18;58.63;;;90.20;2176.00;;;;;;5075558;28;20536;-69
2021/01/17 06:36:35;;;;;;;77.97;37.33;;;90.10;2176.00;;;;;;5093783;28;20043;-70
2021/01/17 06:39:00;;;;;;;59.22;30.35;;;90.00;2176.00;;;;;;5093612;28;20103;-70
2021/01/17 06:41:47;;;;;;;76.05;36.95;;;89.90;2176.00;;;;;;5075552;28;20544;-70
2021/01/17 06:44:13;;;;;;;65.43;33.20;;;89.70;2176.00;;;;;;5093525;28;20020;-70
2021/01/17 06:46:44;;;;;;;78.50;36.75;;;64.80;2201.60;;;;;;5093401;28;20016;-70
2021/01/17 06:49:17;;;;;;;59.45;28.73;;;64.80;2201.60;;;;;;5075793;28;20024;-70
2021/01/17 06:51:43;;;;;;;61.58;29.40;;;64.60;2201.60;;;;;;5093141;28;20020;-70
2021/01/17 06:54:08;;;;;;;60.15;29.30;;;64.40;2201.60;;;;;;5075498;28;20032;-71
2021/01/17 06:56:34;;;;;;;59.97;27.98;;;64.10;2201.60;;;;;;5075329;28;20111;-71
2021/01/17 06:58:59;;;;;;;64.68;28.40;;;39.30;2201.60;;;;;;5093288;28;20480;-70
2021/01/17 07:01:27;;;;;;;76.60;32.83;;;64.10;2201.60;;;;;;5075105;28;20066;-70
2021/01/17 07:04:05;;;;;;;75.45;31.73;;;64.30;2201.60;;;;;;5093183;28;20077;-71
2021/01/17 07:06:36;;;;;;;71.72;32.03;;;64.40;2201.60;;;;;;5075495;28;20547;-69
2021/01/17 07:09:09;;;;;;;66.00;32.63;;;64.30;2201.60;;;;;;5093190;28;20059;-71
2021/01/17 07:11:59;;;;;;;77.25;34.30;;;64.20;2201.60;;;;;;5075491;28;20149;-71
2021/01/17 07:14:28;;;;;;;76.47;38.85;;;64.30;2201.60;;;;;;5093131;28;20047;-70
2021/01/17 07:16:56;;;;;;;77.82;35.25;;;64.20;2201.60;;;;;;5092698;28;20032;-71
2021/01/17 07:19:22;;;;;;;71.18;32.72;;;64.20;2201.60;;;;;;5092776;28;20036;-69
2021/01/17 07:21:49;;;;;;;69.65;33.47;;;64.10;2201.60;;;;;;5057955;28;20039;-71
2021/01/17 07:24:14;;;;;;;70.32;31.45;;;64.10;2201.60;;;;;;5058165;28;20028;-70
2021/01/17 07:26:48;;;;;;;72.38;32.38;;;64.40;2201.60;;;;;;5073936;28;20099;-70
2021/01/17 07:29:17;;;;;;;70.20;36.30;;;64.80;2201.60;;;;;;5092658;28;20012;-70
2021/01/17 07:31:43;;;;;;;69.53;31.00;;;64.60;2201.60;;;;;;5092778;28;20442;-71
2021/01/17 07:34:11;;;;;;;72.93;32.58;;;64.70;2201.60;;;;;;5074423;28;20032;-70
2021/01/17 07:36:38;;;;;;;75.25;34.60;;;64.60;2201.60;;;;;;5074601;28;20136;-71
2021/01/17 07:39:04;;;;;;;80.90;34.65;;;64.40;2201.60;;;;;;5092538;28;20027;-70
2021/01/17 07:41:30;;;;;;;74.95;32.20;;;64.30;2201.60;;;;;;5074374;28;20039;-71
2021/01/17 07:43:59;;;;;;;74.68;34.17;;;64.10;2201.60;;;;;;5074273;28;20024;-70
2021/01/17 07:46:27;;;;;;;106.43;43.58;;;64.00;2201.60;;;;;;5092505;28;20105;-71
2021/01/17 07:48:53;;;;;;;102.30;43.97;;;39.30;2201.60;;;;;;5074488;28;20483;-70
2021/01/17 07:51:18;;;;;;;107.15;45.72;;;39.30;2201.60;;;;;;5074304;28;20024;-71
2021/01/17 07:54:09;;;;;;;69.50;30.90;;;39.20;2201.60;;;;;;5092404;28;20031;-70
2021/01/17 07:56:34;;;;;;;;;;;39.20;2201.60;;;;;;5074673;28;20020;-71
2021/01/17 07:59:02;;;;;;;91.53;39.70;;;39.20;2201.60;;;;;;5092367;28;19919;-71
2021/01/17 08:01:31;;;;;;;67.07;29.85;;;39.20;2201.60;;;;;;5092082;28;20032;-70
2021/01/17 08:04:17;;;;;;;73.22;34.22;;;39.20;2201.60;;;;;;5092155;28;20032;-71
2021/01/17 08:06:45;;;;;;;66.88;30.77;;;38.90;2201.60;;;;;;5091438;28;20034;-71
2021/01/17 08:09:14;;;;;;;69.47;32.90;;;39.00;2201.60;;;;;;5092230;28;20101;-70
2021/01/17 08:11:49;;;;;;;82.97;40.70;;;39.10;2201.60;;;;;;5092036;28;20023;-70
2021/01/17 08:14:33;;;;;;;86.43;36.50;;;39.10;2201.60;;;;;;5092481;28;20038;-70
2021/01/17 08:17:18;;;;;;;97.05;42.33;;;39.00;2201.60;;;;;;5091862;28;20031;-70
2021/01/17 08:19:51;;;;;;;80.93;36.83;;;38.90;2201.60;;;;;;5092238;28;20114;-70
2021/01/17 08:22:16;;;;;;;83.97;37.45;;;39.10;2201.60;;;;;;5091906;28;20031;-71
2021/01/17 08:24:48;;;;;;;111.35;48.35;;;39.00;2201.60;;;;;;5091913;28;20477;-71
2021/01/17 08:27:38;;;;;;;92.57;41.75;;;38.80;2201.60;;;;;;5091873;28;20054;-71
2021/01/17 08:30:07;;;;;;;66.88;31.30;;;38.80;2201.60;;;;;;5092129;28;20020;-68
2021/01/17 08:32:43;;;;;;;92.07;40.17;;;38.70;2201.60;;;;;;5091906;28;20020;-70
2021/01/17 08:35:18;;;;;;;83.20;38.97;;;13.60;2201.60;;;;;;5091949;28;20031;-71
2021/01/17 08:37:44;;;;;;;95.57;40.00;;;13.50;2201.60;;;;;;5091289;28;20063;-71
2021/01/17 08:40:11;;;;;;;103.57;44.45;;;13.30;2176.00;;;;;;5096003;28;20024;-71
2021/01/17 08:42:38;;;;;;;115.00;50.63;;;13.10;2176.00;;;;;;5095690;28;20067;-71
2021/01/17 08:45:25;;;;;;;86.25;43.67;;;12.90;2124.80;;;;;;5094764;28;20054;-70
2021/01/17 08:47:52;;;;;;;87.15;42.08;;;0.00;2099.20;;;;;;5084403;28;20028;-71
2021/01/17 08:50:33;;;;;;;72.13;34.67;;;0.50;2073.60;;;;;;5078020;28;20031;-71
2021/01/17 08:53:09;;;;;;;140.93;56.45;;;0.40;2073.60;;;;;;5094404;28;20100;-71
2021/01/17 08:55:38;;;;;;;74.70;35.95;;;0.40;2099.20;;;;;;5077576;28;20024;-73
2021/01/17 08:58:04;;;;;;;67.60;33.53;;;0.40;2099.20;;;;;;5094388;28;20073;-72
2021/01/17 09:00:48;;;;;;;81.15;38.60;;;0.60;2048.00;;;;;;5095925;28;20043;-71
2021/01/17 09:03:23;;;;;;;65.22;31.55;;;0.50;2073.60;;;;;;5095536;28;20392;-70
2021/01/17 09:05:50;;;;;;;65.03;31.40;;;0.50;2048.00;;;;;;5095580;28;20024;-71
2021/01/17 09:08:17;;;;;;;86.03;43.75;;;0.60;2022.40;;;;;;5094522;28;20020;-70
2021/01/17 09:10:42;;;;;;;102.88;45.53;;;0.60;2048.00;;;;;;5061063;28;20024;-70
2021/01/17 09:13:09;;;;;;;86.38;38.60;;;0.30;2048.00;;;;;;5095561;28;20024;-70
2021/01/17 09:15:35;;;;;;;65.32;31.02;;;0.50;2048.00;;;;;;5094007;28;20028;-71
2021/01/17 09:18:01;;;;;;;62.83;30.08;;;0.90;1996.80;;;;;;5062867;28;20024;-70
2021/01/17 09:20:27;;;;;;;64.20;33.20;;;25.70;1996.80;;;;;;5076401;28;20028;-70
2021/01/17 09:22:58;;;;;;;65.13;32.40;;;25.80;1971.20;;;;;;5077867;28;20061;-71
2021/01/17 09:25:24;;;;;;;58.22;30.15;;;0.60;2022.40;;;;;;5094745;28;20111;-71
2021/01/17 09:27:50;;;;;;;74.68;33.38;;;0.90;2022.40;;;;;;5076541;28;20132;-70
2021/01/17 09:30:16;;;;;;;95.15;39.58;;;0.90;2022.40;;;;;;5093907;28;20106;-71
2021/01/17 09:32:41;;;;;;;68.18;32.42;;;0.90;2022.40;;;;;;5076279;28;20103;-70
2021/01/17 09:35:07;;;;;;;94.20;42.35;;;25.80;1971.20;;;;;;5082071;28;20503;-69
2021/01/17 09:37:34;;;;;;;115.07;47.42;;;25.70;1971.20;;;;;;5089236;28;20048;-71
2021/01/17 09:40:00;;;;;;;130.82;57.08;;;25.70;2022.40;;;;;;5092856;28;20516;-70
2021/01/17 09:42:26;;;;;;;66.35;33.50;;;0.80;2022.40;;;;;;5093541;28;20065;-70
2021/01/17 09:44:59;;;;;;;66.82;32.50;;;0.70;2022.40;;;;;;5075835;28;20055;-71
2021/01/17 09:47:26;;;;;;;74.63;39.15;;;0.70;2022.40;;;;;;5093345;28;20020;-70
2021/01/17 09:49:52;;;;;;;92.60;46.33;;;0.50;2022.40;;;;;;5092472;28;20020;-70
2021/01/17 09:52:19;;;;;;;140.75;68.57;;;0.90;2048.00;;;;;;5094454;28;20137;-70
2021/01/17 09:54:46;;;;;;;119.65;63.20;;;25.60;1996.80;;;;;;5093453;28;20020;-71
2021/01/17 09:57:18;;;;;;;108.13;56.72;;;25.60;2022.40;;;;;;5092985;28;20032;-71
2021/01/17 09:59:44;;;;;;;92.97;47.53;;;26.20;1971.20;;;;;;5093277;28;20030;-70
2021/01/17 10:02:10;;;;;;;99.88;51.45;;;51.30;1920.00;;;;;;5075706;28;20393;-70
2021/01/17 10:04:36;;;;;;;81.72;42.15;;;51.80;1868.80;;;;;;5065278;28;20032;-70
2021/01/17 10:07:01;;;;;;;100.65;48.78;;;51.50;1894.40;;;;;;5094690;28;20077;-69
2021/01/17 10:09:27;;;;;;;87.10;53.25;;;51.80;1894.40;;;;;;5093513;28;20072;-70
2021/01/17 10:12:02;;;;;;;62.05;34.35;;;26.50;1894.40;;;;;;5092800;28;20020;-71
2021/01/17 10:14:29;;;;;;;55.55;31.42;;;51.20;1920.00;;;;;;5094148;28;20067;-70
2021/01/17 10:16:56;;;;;;;56.45;31.63;;;26.10;1971.20;;;;;;5071435;28;20111;-70
2021/01/17 10:19:38;;;;;;;63.47;34.55;;;26.10;1971.20;;;;;;5094006;28;20110;-69
2021/01/17 10:22:04;;;;;;;51.72;28.48;;;26.50;1945.60;;;;;;5080537;28;20095;-70
2021/01/17 10:24:31;;;;;;;49.28;28.02;;;26.40;1945.60;;;;;;5075832;28;20103;-70
2021/01/17 10:27:01;;;;;;;48.67;27.52;;;26.20;1945.60;;;;;;5093558;28;20141;-70
2021/01/17 10:29:29;;;;;;;50.47;27.95;;;51.40;1920.00;;;;;;5093945;28;20020;-70
2021/01/17 10:32:03;;;;;;;49.28;25.52;;;51.70;1894.40;;;;;;5092763;28;20021;-70
2021/01/17 10:34:33;;;;;;;49.53;27.00;;;51.30;1920.00;;;;;;5074830;28;20016;-70
2021/01/17 10:37:00;;;;;;;;;;;26.00;1971.20;;;;;;5093386;28;20044;-70
2021/01/17 10:39:25;;;;;;;47.17;24.95;;;51.20;1945.60;;;;;;5075293;28;19973;-70
2021/01/17 10:41:53;;;;;;;74.70;38.25;;;51.30;1945.60;;;;;;5075359;28;20032;-70
2021/01/17 10:44:25;;;;;;;56.10;29.27;;;51.20;1945.60;;;;;;5093427;28;20081;-70
2021/01/17 10:47:01;;;;;;;42.65;23.27;;;51.20;1920.00;;;;;;5075008;28;20020;-70
2021/01/17 10:49:27;;;;;;;55.78;29.27;;;51.70;1894.40;;;;;;5074989;28;20028;-70
2021/01/17 10:51:53;;;;;;;59.97;28.73;;;52.00;1868.80;;;;;;5058067;28;20020;-71
2021/01/17 10:54:23;;;;;;;69.70;35.90;;;51.30;1894.40;;;;;;5058251;28;20548;-71
2021/01/17 10:56:50;;;;;;;67.90;35.22;;;51.30;1894.40;;;;;;5059745;28;20113;-71
2021/01/17 10:59:17;;;;;;;70.15;32.75;;;51.90;1868.80;;;;;;5061523;28;20032;-71
2021/01/17 11:01:46;;;;;;;72.45;33.42;;;76.80;1843.20;;;;;;5059640;28;20564;-71
2021/01/17 11:04:14;;;;;;;54.00;26.60;;;76.90;1817.60;;;;;;5074811;28;20039;-70
2021/01/17 11:06:39;;;;;;;73.30;33.85;;;76.90;1792.00;;;;;;5092640;28;20358;-71
2021/01/17 11:09:11;;;;;;;69.38;36.00;;;52.00;1817.60;;;;;;5075175;28;20048;-71
2021/01/17 11:11:47;;;;;;;39.90;23.30;;;52.10;1817.60;;;;;;5078534;28;20025;-72
2021/01/17 11:14:13;;;;;;;43.47;25.20;;;76.80;1792.00;;;;;;5091934;28;20024;-72
2021/01/17 11:16:52;;;;;;;48.53;25.77;;;76.80;1843.20;;;;;;5057531;28;20101;-71
2021/01/17 11:19:17;;;;;;;92.28;40.83;;;51.70;1868.80;;;;;;5089729;28;20101;-71
2021/01/17 11:21:46;;;;;;;83.20;48.45;;;52.00;1868.80;;;;;;5094889;28;20024;-70
2021/01/17 11:24:12;;;;;;;51.05;30.17;;;51.90;1843.20;;;;;;5091939;28;20082;-72
2021/01/17 11:26:38;;;;;;;57.90;31.27;;;51.50;1894.40;;;;;;5091636;28;20030;-70
2021/01/17 11:29:06;;;;;;;36.80;19.70;;;52.00;1843.20;;;;;;5091632;28;20024;-70
2021/01/17 11:31:31;;;;;;;48.28;25.17;;;52.10;1792.00;;;;;;5072912;28;20112;-72
2021/01/17 11:33:57;;;;;;;59.88;29.42;;;51.80;1843.20;;;;;;5041700;28;20095;-70
2021/01/17 11:36:26;;;;;;;61.03;32.03;;;51.80;1843.20;;;;;;5074011;28;20122;-70
2021/01/17 11:38:57;;;;;;;48.90;27.65;;;76.90;1817.60;;;;;;5091930;28;20064;-69
2021/01/17 11:41:36;;;;;;;52.15;30.55;;;77.10;1792.00;;;;;;5073901;28;20388;-70
2021/01/17 11:44:09;;;;;;;52.88;29.85;;;77.20;1766.40;;;;;;5059473;28;20052;-70
2021/01/17 11:46:34;;;;;;;42.42;24.90;;;51.90;1817.60;;;;;;5070830;28;20020;-71
2021/01/17 11:49:00;;;;;;;52.80;26.42;;;51.80;1817.60;;;;;;5092022;28;20388;-69
2021/01/17 11:51:26;;;;;;;35.20;18.00;;;51.40;1868.80;;;;;;5091669;28;20095;-70
2021/01/17 11:53:51;;;;;;;41.15;20.38;;;26.40;1843.20;;;;;;5091616;28;20035;-70
2021/01/17 11:56:17;;;;;;;29.02;14.90;;;26.40;1894.40;;;;;;5092063;28;20028;-72
2021/01/17 11:58:42;;;;;;;36.45;18.33;;;26.10;1868.80;;;;;;5060318;28;20028;-69
2021/01/17 12:01:08;;;;;;;47.75;25.58;;;26.40;1894.40;;;;;;5088812;28;20384;-71
2021/01/17 12:03:35;;;;;;;45.40;25.30;;;51.40;1894.40;;;;;;5090702;28;20479;-69
2021/01/17 12:06:11;;;;;;;41.40;22.88;;;51.60;1868.80;;;;;;5091370;28;20031;-68
2021/01/17 12:08:55;;;;;;;37.38;19.27;;;26.50;1894.40;;;;;;5089431;28;20461;-70
2021/01/17 12:11:33;;;;;;;38.80;20.70;;;26.10;1920.00;;;;;;5091152;28;20028;-71
2021/01/17 12:14:07;;;;;;;39.33;21.35;;;26.20;1920.00;;;;;;5067361;28;20028;-74